createdAt,value
2024-05-09T00:04:25.693Z,11.42
2024-05-09T00:16:25.587Z,11.40
2024-05-09T00:28:25.587Z,11.37
2024-05-09T00:40:31.247Z,11.36
2024-05-09T00:52:25.459Z,11.35
2024-05-09T01:04:25.538Z,11.34
2024-05-09T01:16:25.548Z,11.32
2024-05-09T01:28:25.449Z,11.30
2024-05-09T01:40:35.420Z,11.29
2024-05-09T01:52:25.498Z,11.27
2024-05-09T02:04:25.799Z,11.26
2024-05-09T02:16:25.474Z,11.22
2024-05-09T02:28:25.454Z,11.22
2024-05-09T02:40:33.738Z,11.20
2024-05-09T02:52:25.446Z,11.19
2024-05-09T03:04:25.521Z,11.18
2024-05-09T03:16:25.573Z,11.15
2024-05-09T03:28:25.505Z,11.13
2024-05-09T03:40:28.967Z,11.13
2024-05-09T03:52:25.459Z,11.11
2024-05-09T04:04:25.533Z,11.10
2024-05-09T04:16:25.446Z,11.09
2024-05-09T04:28:25.454Z,11.09
2024-05-09T04:40:32.871Z,11.06
2024-05-09T04:52:25.452Z,11.07
2024-05-09T05:04:25.508Z,11.06
2024-05-09T05:16:25.451Z,11.06
2024-05-09T05:28:25.449Z,11.05
2024-05-09T05:40:33.098Z,11.05
2024-05-09T05:52:25.457Z,11.05
2024-05-09T06:04:25.553Z,11.05
2024-05-09T06:16:25.454Z,11.06
2024-05-09T06:28:25.465Z,11.08
2024-05-09T06:40:30.030Z,11.09
2024-05-09T06:52:25.450Z,11.09
2024-05-09T07:04:25.677Z,11.11
2024-05-09T07:16:25.473Z,11.14
2024-05-09T07:28:25.469Z,11.13
2024-05-09T07:40:32.991Z,11.14
2024-05-09T08:04:26.671Z,11.17
2024-05-09T08:16:25.549Z,11.23
2024-05-09T08:28:25.522Z,11.28
2024-05-09T08:40:32.944Z,11.34
2024-05-09T08:52:26.562Z,11.43
2024-05-09T09:04:25.567Z,11.50
2024-05-09T09:16:25.609Z,11.61
2024-05-09T09:28:25.474Z,11.52
2024-05-09T09:52:25.554Z,11.67
2024-05-09T10:04:25.706Z,11.85
2024-05-09T10:16:25.640Z,12.00
2024-05-09T10:28:25.453Z,12.13
2024-05-09T10:40:31.045Z,12.30
2024-05-09T10:52:25.500Z,12.50
2024-05-09T11:04:25.572Z,12.79
2024-05-09T11:16:25.507Z,12.84
2024-05-09T11:28:25.501Z,12.82
2024-05-09T11:40:32.020Z,12.79
2024-05-09T11:52:25.540Z,12.78
2024-05-09T12:04:25.635Z,12.83
2024-05-09T12:16:25.672Z,12.79
2024-05-09T12:28:25.501Z,12.79
2024-05-09T12:40:33.442Z,12.79
2024-05-09T12:52:25.455Z,12.80
2024-05-09T13:04:26.664Z,12.82
2024-05-09T13:16:25.644Z,12.84
2024-05-09T13:28:25.674Z,12.82
2024-05-09T13:40:32.666Z,12.79
2024-05-09T13:52:25.502Z,12.78
2024-05-09T14:04:25.714Z,12.78
2024-05-09T14:16:25.618Z,12.76
2024-05-09T14:28:25.536Z,12.77
2024-05-09T14:40:36.246Z,12.78
2024-05-09T14:52:25.443Z,12.78
2024-05-09T15:04:25.669Z,12.78
2024-05-09T15:16:25.638Z,12.76
2024-05-09T15:28:25.609Z,12.76
2024-05-09T15:40:34.994Z,12.76
2024-05-09T15:52:25.450Z,12.81
2024-05-09T16:04:25.649Z,12.82
2024-05-09T16:16:25.579Z,11.77
2024-05-09T16:28:27.083Z,12.86
2024-05-09T16:40:34.414Z,12.85
2024-05-09T16:52:25.489Z,12.84
2024-05-09T17:04:25.560Z,12.84
2024-05-09T17:16:25.558Z,11.67
2024-05-09T17:28:25.515Z,11.62
2024-05-09T17:40:31.529Z,11.60
2024-05-09T17:52:25.499Z,11.57
2024-05-09T18:04:25.601Z,11.55
2024-05-09T18:16:25.614Z,11.52
2024-05-09T18:28:25.666Z,11.47
2024-05-09T18:40:32.398Z,11.47
2024-05-09T18:52:25.454Z,11.44
2024-05-09T19:04:25.716Z,11.42
2024-05-09T19:16:25.521Z,11.89
2024-05-09T19:28:25.697Z,11.87
2024-05-09T19:40:31.101Z,11.85
2024-05-09T19:52:25.571Z,11.82
2024-05-09T20:04:25.702Z,11.80
2024-05-09T20:16:25.552Z,11.76
2024-05-09T20:28:25.776Z,11.74
2024-05-09T20:40:31.649Z,11.73
2024-05-09T20:52:25.567Z,11.70
2024-05-09T21:04:25.660Z,11.68
2024-05-09T21:16:25.671Z,11.65
2024-05-09T21:28:25.713Z,11.62
2024-05-09T21:40:31.674Z,11.62
2024-05-09T21:52:25.577Z,11.58
2024-05-09T22:04:25.645Z,11.58
2024-05-09T22:16:25.717Z,11.54
2024-05-09T22:28:25.494Z,11.54
2024-05-09T22:40:37.893Z,11.52
2024-05-09T22:52:25.461Z,11.48
2024-05-09T23:04:25.614Z,11.48
2024-05-09T23:16:25.687Z,11.46
2024-05-09T23:28:25.756Z,11.44
2024-05-09T23:40:35.011Z,11.42
2024-05-09T23:52:25.610Z,11.41
